createdAt,value
2023-03-29T00:00:09.660Z,63.50
2023-03-29T00:02:39.846Z,63.21
2023-03-29T00:05:08.823Z,63.38
2023-03-29T00:07:36.508Z,63.55
2023-03-29T00:10:05.337Z,64.04
2023-03-29T00:12:33.522Z,63.15
2023-03-29T00:15:01.938Z,64.06
2023-03-29T00:17:29.645Z,64.04
2023-03-29T00:19:57.428Z,64.52
2023-03-29T00:22:25.478Z,64.65
2023-03-29T00:24:54.213Z,65.18
2023-03-29T00:27:22.224Z,65.04
2023-03-29T00:29:49.934Z,64.14
2023-03-29T00:32:17.564Z,63.35
2023-03-29T00:34:45.932Z,62.30
2023-03-29T00:37:14.810Z,62.75
2023-03-29T00:39:42.635Z,62.42
2023-03-29T00:42:13.500Z,62.32
2023-03-29T00:45:13.592Z,62.25
2023-03-29T00:47:50.702Z,62.14
2023-03-29T00:50:25.765Z,62.13
2023-03-29T00:53:21.820Z,62.73
2023-03-29T00:56:18.239Z,62.02
2023-03-29T00:59:03.827Z,61.72
2023-03-29T01:01:34.456Z,62.14
2023-03-29T01:04:09.857Z,61.28
2023-03-29T01:06:39.506Z,61.20
2023-03-29T01:09:09.324Z,61.50
2023-03-29T01:11:40.410Z,61.23
2023-03-29T01:14:15.589Z,60.75
2023-03-29T01:16:43.414Z,61.11
2023-03-29T01:19:14.338Z,61.07
2023-03-29T01:21:51.529Z,61.35
2023-03-29T01:24:34.651Z,61.35
2023-03-29T01:27:40.348Z,61.42
2023-03-29T01:30:12.177Z,61.26
2023-03-29T01:32:47.886Z,61.16
2023-03-29T01:35:22.869Z,61.90
2023-03-29T01:38:05.293Z,62.00
2023-03-29T01:40:33.771Z,62.27
2023-03-29T01:43:28.007Z,62.46
2023-03-29T01:46:19.094Z,62.73
2023-03-29T01:48:50.807Z,62.23
2023-03-29T01:51:25.807Z,62.97
2023-03-29T01:54:03.410Z,62.88
2023-03-29T01:56:36.879Z,63.42
2023-03-29T01:59:09.286Z,62.95
2023-03-29T02:01:43.867Z,62.58
2023-03-29T02:04:14.598Z,63.16
2023-03-29T02:06:42.895Z,63.50
2023-03-29T02:09:10.668Z,63.65
2023-03-29T02:11:39.214Z,63.88
2023-03-29T02:14:07.457Z,63.97
2023-03-29T02:16:39.448Z,64.34
2023-03-29T02:19:08.148Z,64.26
2023-03-29T02:22:02.024Z,63.85
2023-03-29T02:24:32.389Z,64.65
2023-03-29T02:27:00.312Z,64.47
2023-03-29T02:29:27.738Z,64.55
2023-03-29T02:32:05.820Z,64.74
2023-03-29T02:34:42.162Z,64.79
2023-03-29T02:37:13.092Z,65.07
2023-03-29T02:39:41.169Z,65.33
2023-03-29T02:42:09.472Z,65.24
2023-03-29T02:44:39.986Z,65.16
2023-03-29T02:47:32.006Z,65.16
2023-03-29T02:50:00.477Z,65.37
2023-03-29T02:52:41.192Z,65.46
2023-03-29T02:55:15.035Z,66.07
2023-03-29T02:57:43.909Z,66.17
2023-03-29T03:00:14.644Z,66.25
2023-03-29T03:02:42.864Z,66.96
2023-03-29T03:07:40.532Z,66.85
2023-03-29T03:10:10.171Z,67.21
2023-03-29T03:12:38.299Z,67.12
2023-03-29T03:15:06.683Z,68.09
2023-03-29T03:17:40.007Z,67.65
2023-03-29T03:20:13.316Z,67.72
2023-03-29T03:22:42.835Z,67.68
2023-03-29T03:25:11.269Z,68.22
2023-03-29T03:27:43.858Z,68.15
2023-03-29T03:30:12.385Z,68.91
2023-03-29T03:32:44.738Z,68.63
2023-03-29T03:35:14.138Z,68.72
2023-03-29T03:37:41.872Z,69.08
2023-03-29T03:40:11.771Z,69.06
2023-03-29T03:42:41.358Z,69.20
2023-03-29T03:45:10.615Z,70.11
2023-03-29T03:47:39.829Z,70.57
2023-03-29T03:50:11.717Z,69.95
2023-03-29T03:52:39.690Z,70.71
2023-03-29T03:55:11.973Z,70.60
2023-03-29T03:57:41.291Z,70.84
2023-03-29T04:00:21.548Z,70.68
2023-03-29T04:02:50.262Z,71.16
2023-03-29T04:05:17.992Z,71.54
2023-03-29T04:07:45.744Z,71.41
2023-03-29T04:10:14.750Z,71.23
2023-03-29T04:12:42.920Z,70.79
2023-03-29T04:15:10.744Z,70.76
2023-03-29T04:17:39.409Z,70.50
2023-03-29T04:20:11.625Z,70.76
2023-03-29T04:22:40.288Z,71.13
2023-03-29T04:25:08.561Z,70.73
2023-03-29T04:27:39.071Z,71.66
2023-03-29T04:30:09.533Z,71.82
2023-03-29T04:32:42.795Z,71.69
2023-03-29T04:35:11.625Z,71.17
2023-03-29T04:37:40.454Z,71.55
2023-03-29T04:40:09.865Z,72.05
2023-03-29T04:42:39.127Z,72.03
2023-03-29T04:45:07.204Z,72.19
2023-03-29T04:47:39.855Z,72.04
2023-03-29T04:50:08.785Z,71.75
2023-03-29T04:52:37.387Z,71.60
2023-03-29T04:55:06.969Z,71.24
2023-03-29T04:57:37.750Z,70.62
2023-03-29T05:00:14.777Z,70.66
2023-03-29T05:02:44.819Z,70.90
2023-03-29T05:05:13.325Z,70.19
2023-03-29T05:07:41.113Z,69.78
2023-03-29T05:10:10.702Z,69.25
2023-03-29T05:12:38.563Z,69.73
2023-03-29T05:15:06.742Z,68.36
2023-03-29T05:17:35.383Z,69.14
2023-03-29T05:20:09.552Z,68.33
2023-03-29T05:22:38.406Z,68.60
2023-03-29T05:25:08.255Z,68.39
2023-03-29T05:27:35.991Z,67.40
2023-03-29T05:30:04.328Z,67.55
2023-03-29T05:32:32.621Z,67.66
2023-03-29T05:35:00.226Z,67.01
2023-03-29T05:37:28.548Z,67.29
2023-03-29T05:40:05.554Z,66.69
2023-03-29T05:42:34.679Z,66.57
2023-03-29T05:45:03.911Z,65.82
2023-03-29T05:47:31.755Z,65.62
2023-03-29T05:49:59.728Z,65.07
2023-03-29T05:52:27.524Z,65.23
2023-03-29T05:55:04.320Z,64.47
2023-03-29T05:57:32.537Z,63.44
2023-03-29T06:00:00.196Z,62.61
2023-03-29T06:02:28.606Z,63.23
2023-03-29T06:04:57.441Z,62.19
2023-03-29T06:07:25.878Z,62.38
2023-03-29T06:09:55.542Z,61.31
2023-03-29T06:12:24.740Z,61.76
2023-03-29T06:14:53.151Z,61.26
2023-03-29T06:17:21.218Z,60.27
2023-03-29T06:19:49.242Z,60.93
2023-03-29T06:22:17.805Z,59.47
2023-03-29T06:24:45.305Z,58.20
2023-03-29T06:27:15.572Z,59.08
2023-03-29T06:29:43.493Z,58.45
2023-03-29T06:32:11.786Z,58.65
2023-03-29T06:34:40.946Z,58.39
2023-03-29T06:37:09.281Z,58.74
2023-03-29T06:39:36.891Z,57.46
2023-03-29T06:42:20.049Z,57.31
2023-03-29T06:44:49.690Z,57.08
2023-03-29T06:47:18.329Z,55.44
2023-03-29T06:49:45.831Z,56.07
2023-03-29T06:52:13.818Z,54.72
2023-03-29T06:54:42.105Z,54.03
2023-03-29T06:57:10.432Z,53.55
2023-03-29T06:59:38.766Z,54.39
2023-03-29T07:02:07.413Z,53.59
2023-03-29T07:04:36.514Z,53.26
2023-03-29T07:07:07.651Z,51.84
2023-03-29T07:09:36.101Z,51.98
2023-03-29T07:12:05.160Z,51.68
2023-03-29T07:14:33.469Z,50.18
2023-03-29T07:17:01.211Z,48.65
2023-03-29T07:19:30.232Z,49.03
2023-03-29T07:21:59.016Z,48.82
2023-03-29T07:24:29.960Z,46.43
2023-03-29T07:27:04.085Z,46.05
2023-03-29T07:29:33.216Z,45.38
2023-03-29T07:32:01.004Z,45.29
2023-03-29T07:34:31.476Z,45.33
2023-03-29T07:36:59.531Z,45.40
2023-03-29T07:39:27.795Z,45.32
2023-03-29T07:41:57.986Z,45.34
2023-03-29T07:44:27.083Z,45.46
2023-03-29T07:46:55.229Z,43.65
2023-03-29T07:49:22.894Z,43.45
2023-03-29T07:51:50.736Z,43.32
2023-03-29T07:54:18.954Z,43.13
2023-03-29T07:56:47.778Z,44.53
2023-03-29T07:59:16.958Z,44.00
2023-03-29T08:01:45.239Z,44.61
2023-03-29T08:04:13.921Z,44.53
2023-03-29T08:06:45.637Z,45.04
2023-03-29T08:09:13.682Z,42.93
2023-03-29T08:11:41.836Z,44.55
2023-03-29T08:14:14.138Z,44.73
2023-03-29T08:17:21.922Z,42.90
2023-03-29T08:19:51.001Z,44.28
2023-03-29T08:22:20.510Z,43.34
2023-03-29T08:24:48.542Z,43.43
2023-03-29T08:27:17.379Z,43.19
2023-03-29T08:29:44.945Z,39.90
2023-03-29T08:32:12.747Z,38.47
2023-03-29T08:34:44.478Z,39.65
2023-03-29T08:37:14.017Z,42.51
2023-03-29T08:39:42.092Z,40.42
2023-03-29T08:42:26.634Z,38.20
2023-03-29T08:45:14.955Z,39.85
2023-03-29T08:48:02.992Z,37.78
2023-03-29T08:50:48.052Z,36.41
2023-03-29T08:53:21.507Z,40.18
2023-03-29T08:55:53.188Z,36.30
2023-03-29T08:58:24.985Z,37.25
2023-03-29T09:01:12.042Z,34.33
2023-03-29T09:03:48.690Z,35.27
2023-03-29T09:06:21.983Z,34.97
2023-03-29T09:08:51.638Z,35.28
2023-03-29T09:11:48.184Z,34.55
2023-03-29T09:14:52.564Z,33.47
2023-03-29T09:17:43.068Z,31.63
2023-03-29T09:20:22.920Z,32.05
2023-03-29T09:23:03.073Z,29.97
2023-03-29T09:26:03.929Z,32.65
2023-03-29T09:28:50.859Z,32.62
2023-03-29T09:31:23.013Z,33.28
2023-03-29T09:33:58.014Z,32.02
2023-03-29T09:36:53.081Z,32.22
2023-03-29T09:39:23.172Z,33.40
2023-03-29T09:42:12.758Z,33.25
2023-03-29T09:44:45.487Z,32.88
2023-03-29T09:47:22.119Z,33.60
2023-03-29T09:49:51.917Z,33.51
2023-03-29T09:52:20.938Z,33.85
2023-03-29T09:54:51.894Z,34.27
2023-03-29T09:57:32.051Z,34.41
2023-03-29T10:00:07.379Z,33.62
2023-03-29T10:02:42.463Z,33.96
2023-03-29T10:05:18.026Z,33.45
2023-03-29T10:07:48.984Z,33.35
2023-03-29T10:10:35.181Z,34.33
2023-03-29T10:13:11.927Z,33.30
2023-03-29T10:15:39.845Z,34.91
2023-03-29T10:18:13.585Z,33.75
2023-03-29T10:20:41.480Z,33.36
2023-03-29T10:23:16.412Z,33.81
2023-03-29T10:25:44.791Z,32.95
2023-03-29T10:28:17.305Z,33.55
2023-03-29T10:30:48.696Z,33.04
2023-03-29T10:33:19.830Z,32.29
2023-03-29T10:35:48.737Z,31.65
2023-03-29T10:38:19.790Z,31.24
2023-03-29T10:40:54.676Z,32.74
2023-03-29T10:43:46.230Z,31.44
2023-03-29T10:46:44.347Z,31.52
2023-03-29T10:49:20.321Z,30.68
2023-03-29T10:51:49.859Z,31.03
2023-03-29T10:54:20.994Z,30.89
2023-03-29T10:57:04.745Z,32.24
2023-03-29T11:00:02.480Z,33.14
2023-03-29T11:02:48.902Z,32.24
2023-03-29T11:05:21.886Z,32.34
2023-03-29T11:07:56.913Z,32.11
2023-03-29T11:10:43.993Z,30.93
2023-03-29T11:13:21.026Z,30.24
2023-03-29T11:16:08.339Z,31.48
2023-03-29T11:18:51.226Z,32.89
2023-03-29T11:21:43.058Z,32.17
2023-03-29T11:24:38.317Z,32.05
2023-03-29T11:27:18.093Z,31.86
2023-03-29T11:30:07.527Z,31.97
2023-03-29T11:32:52.234Z,32.65
2023-03-29T11:35:49.531Z,31.62
2023-03-29T11:38:37.109Z,32.46
2023-03-29T11:41:20.176Z,32.27
2023-03-29T11:43:53.686Z,33.06
2023-03-29T11:46:52.255Z,32.74
2023-03-29T11:49:41.767Z,31.74
2023-03-29T11:52:24.500Z,31.87
2023-03-29T11:55:07.942Z,32.78
2023-03-29T11:57:43.614Z,33.11
2023-03-29T12:00:25.319Z,31.41
2023-03-29T12:02:56.985Z,32.07
2023-03-29T12:05:40.995Z,32.16
2023-03-29T12:08:14.346Z,31.44
2023-03-29T12:10:45.758Z,33.05
2023-03-29T12:13:29.482Z,30.78
2023-03-29T12:16:06.824Z,31.60
2023-03-29T12:18:41.897Z,31.56
2023-03-29T12:21:14.229Z,32.51
2023-03-29T12:23:43.974Z,32.24
2023-03-29T12:26:27.191Z,32.93
2023-03-29T12:29:19.922Z,32.32
2023-03-29T12:32:16.053Z,32.44
2023-03-29T12:35:15.011Z,32.38
2023-03-29T12:38:14.897Z,32.29
2023-03-29T12:41:10.830Z,32.59
2023-03-29T12:43:48.104Z,33.15
2023-03-29T12:46:25.839Z,32.59
2023-03-29T12:48:57.345Z,32.48
2023-03-29T12:51:31.771Z,33.59
2023-03-29T12:54:18.911Z,33.00
2023-03-29T12:56:53.248Z,32.99
2023-03-29T12:59:40.065Z,33.31
2023-03-29T13:02:19.645Z,33.83
2023-03-29T13:04:52.875Z,33.13
2023-03-29T13:07:26.537Z,33.12
2023-03-29T13:10:03.401Z,31.34
2023-03-29T13:12:42.442Z,34.06
2023-03-29T13:15:19.204Z,32.32
2023-03-29T13:18:03.998Z,32.41
2023-03-29T13:20:47.905Z,34.48
2023-03-29T13:23:36.421Z,32.97
2023-03-29T13:26:29.458Z,31.61
2023-03-29T13:29:22.488Z,33.46
2023-03-29T13:32:01.763Z,33.12
2023-03-29T13:34:40.408Z,32.94
2023-03-29T13:37:18.381Z,33.20
2023-03-29T13:39:54.542Z,31.83
2023-03-29T13:42:34.254Z,32.29
2023-03-29T13:45:27.155Z,30.78
2023-03-29T13:48:24.730Z,32.54
2023-03-29T13:51:00.918Z,34.03
2023-03-29T13:53:35.088Z,34.21
2023-03-29T13:56:03.841Z,33.78
2023-03-29T13:58:47.570Z,33.57
2023-03-29T14:01:18.704Z,33.43
2023-03-29T14:03:49.400Z,33.00
2023-03-29T14:06:21.459Z,33.49
2023-03-29T14:08:49.736Z,34.89
2023-03-29T14:11:24.376Z,34.15
2023-03-29T14:13:53.826Z,33.96
2023-03-29T14:16:21.734Z,34.45
2023-03-29T14:18:51.430Z,35.31
2023-03-29T14:21:21.714Z,35.69
2023-03-29T14:23:57.697Z,35.93
2023-03-29T14:26:30.675Z,35.98
2023-03-29T14:29:01.311Z,34.84
2023-03-29T14:31:35.508Z,35.35
2023-03-29T14:34:05.997Z,34.22
2023-03-29T14:36:34.318Z,34.39
2023-03-29T14:39:06.315Z,34.70
2023-03-29T14:41:36.788Z,33.91
2023-03-29T14:44:07.072Z,35.69
2023-03-29T14:46:35.345Z,33.83
2023-03-29T14:49:23.100Z,35.64
2023-03-29T14:51:51.745Z,35.30
2023-03-29T14:54:22.916Z,34.25
2023-03-29T14:56:51.065Z,33.59
2023-03-29T14:59:27.805Z,33.08
2023-03-29T15:01:55.678Z,32.87
2023-03-29T15:04:23.226Z,31.10
2023-03-29T15:06:52.324Z,32.96
2023-03-29T15:09:26.143Z,32.94
2023-03-29T15:11:58.842Z,32.42
2023-03-29T15:14:28.961Z,32.50
2023-03-29T15:17:03.600Z,33.64
2023-03-29T15:19:31.960Z,34.07
2023-03-29T15:22:05.436Z,35.13
2023-03-29T15:24:33.916Z,34.69
2023-03-29T15:27:03.306Z,33.93
2023-03-29T15:29:41.903Z,34.92
2023-03-29T15:32:19.335Z,34.61
2023-03-29T15:34:47.465Z,35.07
2023-03-29T15:37:15.382Z,34.53
2023-03-29T15:39:44.073Z,35.50
2023-03-29T15:42:11.692Z,35.67
2023-03-29T15:44:39.399Z,36.12
2023-03-29T15:47:10.869Z,36.19
2023-03-29T15:49:38.998Z,35.84
2023-03-29T15:52:06.427Z,36.73
2023-03-29T15:54:34.964Z,36.52
2023-03-29T15:57:07.600Z,36.68
2023-03-29T15:59:36.396Z,36.88
2023-03-29T16:02:04.700Z,37.08
2023-03-29T16:04:32.443Z,38.18
2023-03-29T16:07:00.460Z,37.73
2023-03-29T16:09:28.097Z,37.88
2023-03-29T16:11:55.825Z,37.90
2023-03-29T16:14:27.276Z,38.03
2023-03-29T16:17:01.005Z,38.20
2023-03-29T16:19:30.930Z,38.39
2023-03-29T16:22:00.208Z,38.00
2023-03-29T16:24:29.971Z,40.35
2023-03-29T16:26:58.661Z,38.23
2023-03-29T16:29:26.328Z,37.96
2023-03-29T16:31:54.365Z,37.67
2023-03-29T16:34:22.768Z,37.88
2023-03-29T16:36:51.111Z,37.84
2023-03-29T16:39:18.678Z,39.56
2023-03-29T16:41:48.892Z,38.64
2023-03-29T16:44:20.737Z,39.23
2023-03-29T16:46:53.754Z,39.33
2023-03-29T16:49:21.562Z,40.98
2023-03-29T16:51:49.239Z,40.45
2023-03-29T16:54:17.359Z,41.87
2023-03-29T16:56:44.879Z,41.28
2023-03-29T16:59:12.687Z,41.16
2023-03-29T17:01:40.813Z,40.53
2023-03-29T17:04:09.158Z,40.52
2023-03-29T17:06:37.000Z,40.61
2023-03-29T17:09:05.245Z,41.07
2023-03-29T17:11:33.019Z,41.42
2023-03-29T17:14:00.699Z,41.97
2023-03-29T17:16:29.462Z,41.33
2023-03-29T17:19:00.586Z,41.63
2023-03-29T17:21:29.516Z,42.26
2023-03-29T17:23:57.109Z,42.01
2023-03-29T17:26:24.562Z,42.19
2023-03-29T17:28:52.269Z,43.13
2023-03-29T17:31:21.372Z,42.42
2023-03-29T17:33:51.877Z,43.84
2023-03-29T17:36:23.986Z,42.59
2023-03-29T17:38:51.840Z,42.86
2023-03-29T17:41:19.541Z,42.54
2023-03-29T17:43:48.054Z,42.39
2023-03-29T17:46:16.937Z,43.08
2023-03-29T17:48:46.194Z,42.83
2023-03-29T17:51:14.077Z,42.65
2023-03-29T17:53:41.537Z,44.52
2023-03-29T17:56:09.304Z,43.09
2023-03-29T17:58:37.233Z,43.11
2023-03-29T18:01:09.818Z,43.05
2023-03-29T18:03:38.150Z,43.13
2023-03-29T18:06:06.868Z,43.42
2023-03-29T18:08:34.883Z,43.49
2023-03-29T18:11:11.776Z,43.76
2023-03-29T18:13:39.997Z,43.93
2023-03-29T18:16:08.787Z,43.69
2023-03-29T18:18:36.914Z,43.59
2023-03-29T18:21:06.870Z,44.76
2023-03-29T18:23:34.662Z,45.38
2023-03-29T18:26:03.585Z,44.73
2023-03-29T18:28:31.454Z,45.14
2023-03-29T18:30:59.497Z,45.54
2023-03-29T18:33:27.900Z,45.00
2023-03-29T18:35:55.869Z,45.12
2023-03-29T18:38:23.770Z,44.62
2023-03-29T18:40:51.957Z,45.37
2023-03-29T18:43:20.281Z,45.69
2023-03-29T18:45:48.479Z,45.42
2023-03-29T18:48:16.279Z,46.18
2023-03-29T18:50:47.231Z,46.82
2023-03-29T18:53:15.954Z,46.82
2023-03-29T18:55:44.021Z,46.65
2023-03-29T18:58:13.246Z,48.35
2023-03-29T19:00:42.273Z,47.10
2023-03-29T19:03:10.184Z,47.51
2023-03-29T19:05:39.453Z,47.55
2023-03-29T19:08:08.880Z,47.07
2023-03-29T19:10:38.272Z,48.54
2023-03-29T19:13:06.149Z,48.38
2023-03-29T19:15:34.741Z,48.03
2023-03-29T19:18:02.411Z,47.88
2023-03-29T19:20:30.252Z,47.87
2023-03-29T19:22:59.005Z,48.01
2023-03-29T19:25:26.954Z,48.26
2023-03-29T19:27:54.938Z,49.44
2023-03-29T19:30:23.391Z,48.59
2023-03-29T19:32:51.627Z,48.43
2023-03-29T19:35:20.352Z,48.50
2023-03-29T19:37:48.316Z,48.57
2023-03-29T19:40:16.238Z,48.66
2023-03-29T19:42:44.221Z,48.81
2023-03-29T19:45:12.320Z,49.91
2023-03-29T19:47:42.848Z,49.64
2023-03-29T19:50:12.285Z,49.58
2023-03-29T19:52:41.134Z,49.60
2023-03-29T19:55:10.087Z,49.38
2023-03-29T19:57:37.847Z,49.20
2023-03-29T20:00:10.830Z,49.43
2023-03-29T20:02:40.126Z,50.01
2023-03-29T20:05:08.950Z,50.73
2023-03-29T20:07:36.684Z,51.58
2023-03-29T20:10:04.565Z,52.83
2023-03-29T20:12:32.433Z,53.34
2023-03-29T20:14:59.846Z,53.29
2023-03-29T20:17:27.873Z,53.72
2023-03-29T20:19:55.772Z,54.17
2023-03-29T20:22:26.026Z,54.48
2023-03-29T20:24:53.524Z,54.78
2023-03-29T20:27:21.426Z,55.02
2023-03-29T20:29:49.074Z,55.45
2023-03-29T20:32:16.668Z,55.77
2023-03-29T20:34:44.378Z,56.23
2023-03-29T20:37:12.860Z,56.73
2023-03-29T20:39:40.825Z,56.83
2023-03-29T20:42:08.593Z,56.95
2023-03-29T20:44:36.580Z,57.13
2023-03-29T20:47:05.085Z,57.42
2023-03-29T20:49:38.319Z,58.40
2023-03-29T20:52:18.148Z,57.96
2023-03-29T20:54:45.841Z,58.07
2023-03-29T20:57:16.091Z,58.23
2023-03-29T20:59:44.787Z,58.43
2023-03-29T21:02:14.699Z,58.51
2023-03-29T21:04:43.784Z,58.95
2023-03-29T21:07:11.215Z,60.26
2023-03-29T21:09:39.923Z,59.59
2023-03-29T21:12:07.758Z,59.42
2023-03-29T21:14:35.269Z,58.86
2023-03-29T21:17:03.008Z,58.54
2023-03-29T21:19:30.578Z,58.26
2023-03-29T21:21:58.104Z,60.36
2023-03-29T21:24:25.904Z,59.08
2023-03-29T21:26:53.293Z,58.94
2023-03-29T21:29:21.000Z,59.39
2023-03-29T21:31:48.751Z,59.74
2023-03-29T21:34:16.403Z,59.83
2023-03-29T21:36:43.869Z,60.10
2023-03-29T21:39:12.193Z,60.23
2023-03-29T21:41:39.798Z,60.49
2023-03-29T21:44:07.279Z,60.54
2023-03-29T21:46:35.066Z,60.46
2023-03-29T21:49:02.994Z,60.51
2023-03-29T21:51:30.787Z,63.72
2023-03-29T21:53:58.489Z,61.37
2023-03-29T21:56:26.359Z,61.14
2023-03-29T21:58:53.990Z,62.09
2023-03-29T22:01:21.810Z,62.70
2023-03-29T22:03:49.657Z,61.20
2023-03-29T22:06:17.086Z,60.62
2023-03-29T22:08:46.672Z,60.53
2023-03-29T22:11:15.850Z,61.70
2023-03-29T22:13:44.341Z,62.20
2023-03-29T22:16:21.388Z,62.64
2023-03-29T22:18:49.696Z,61.65
2023-03-29T22:21:19.422Z,61.30
2023-03-29T22:23:50.486Z,61.10
2023-03-29T22:26:20.342Z,61.41
2023-03-29T22:28:47.785Z,60.74
2023-03-29T22:31:18.017Z,60.58
2023-03-29T22:33:46.195Z,60.19
2023-03-29T22:36:16.124Z,59.92
2023-03-29T22:38:45.183Z,59.69
2023-03-29T22:41:13.877Z,59.74
2023-03-29T22:43:41.376Z,59.77
2023-03-29T22:46:10.805Z,60.70
2023-03-29T22:48:39.283Z,60.86
2023-03-29T22:51:06.960Z,62.77
2023-03-29T22:53:34.829Z,62.95
2023-03-29T22:56:02.634Z,61.76
2023-03-29T22:58:30.254Z,61.38
2023-03-29T23:00:58.068Z,61.23
2023-03-29T23:03:26.612Z,61.40
2023-03-29T23:05:56.399Z,61.53
2023-03-29T23:08:26.778Z,62.87
2023-03-29T23:10:54.828Z,63.42
2023-03-29T23:13:29.392Z,62.08
2023-03-29T23:15:59.253Z,61.30
2023-03-29T23:18:28.508Z,60.45
2023-03-29T23:20:57.967Z,60.30
2023-03-29T23:23:26.914Z,60.60
2023-03-29T23:25:55.550Z,60.17
2023-03-29T23:28:27.057Z,59.76
2023-03-29T23:31:00.325Z,60.24
2023-03-29T23:33:30.675Z,60.35
2023-03-29T23:35:58.465Z,60.83
2023-03-29T23:38:26.292Z,60.36
2023-03-29T23:41:02.092Z,60.32
2023-03-29T23:43:33.035Z,60.72
2023-03-29T23:46:04.497Z,60.70
2023-03-29T23:48:34.162Z,60.60
2023-03-29T23:51:02.830Z,61.44
2023-03-29T23:53:30.774Z,61.43
2023-03-29T23:56:01.313Z,62.35
2023-03-29T23:58:30.414Z,61.56
